createdAt,value
2023-02-05T00:01:29.198Z,4.30
2023-02-05T00:03:56.175Z,4.00
2023-02-05T00:06:23.300Z,4.37
2023-02-05T00:08:50.340Z,3.93
2023-02-05T00:11:17.338Z,4.27
2023-02-05T00:13:44.558Z,3.80
2023-02-05T00:16:15.435Z,3.77
2023-02-05T00:18:42.746Z,3.00
2023-02-05T00:21:10.494Z,2.90
2023-02-05T00:23:37.993Z,3.13
2023-02-05T00:26:06.099Z,2.87
2023-02-05T00:28:35.331Z,2.87
2023-02-05T00:31:19.707Z,3.13
2023-02-05T00:33:48.277Z,3.83
2023-02-05T00:36:16.148Z,3.60
2023-02-05T00:38:44.963Z,4.00
2023-02-05T00:41:12.857Z,3.80
2023-02-05T00:43:40.859Z,3.80
2023-02-05T00:46:08.577Z,3.47
2023-02-05T00:48:35.439Z,3.80
2023-02-05T00:51:02.809Z,4.73
2023-02-05T00:53:30.056Z,3.30
2023-02-05T00:55:56.924Z,3.90
2023-02-05T00:58:23.867Z,3.43
2023-02-05T01:00:51.783Z,3.80
2023-02-05T01:03:20.657Z,4.20
2023-02-05T01:05:47.796Z,3.40
2023-02-05T01:08:15.080Z,3.43
2023-02-05T01:10:50.256Z,3.40
2023-02-05T01:13:18.375Z,3.10
2023-02-05T01:15:45.710Z,3.63
2023-02-05T01:18:12.711Z,4.13
2023-02-05T01:20:41.628Z,3.50
2023-02-05T01:23:09.175Z,3.20
2023-02-05T01:25:36.171Z,3.63
2023-02-05T01:28:03.386Z,3.60
2023-02-05T01:30:30.316Z,3.70
2023-02-05T01:32:57.278Z,3.63
2023-02-05T01:35:24.206Z,3.13
2023-02-05T01:37:51.082Z,3.27
2023-02-05T01:40:19.075Z,3.23
2023-02-05T01:42:45.931Z,3.60
2023-02-05T01:45:21.879Z,3.77
2023-02-05T01:47:54.245Z,3.50
2023-02-05T01:50:49.229Z,3.53
2023-02-05T01:53:28.351Z,3.60
2023-02-05T01:56:09.870Z,3.30
2023-02-05T01:58:46.348Z,2.93
2023-02-05T02:01:13.266Z,3.50
2023-02-05T02:03:40.577Z,3.97
2023-02-05T02:06:07.861Z,4.03
2023-02-05T02:08:34.747Z,3.57
2023-02-05T02:11:05.309Z,3.50
2023-02-05T02:13:34.422Z,3.47
2023-02-05T02:16:03.059Z,3.20
2023-02-05T02:18:31.408Z,3.00
2023-02-05T02:21:58.678Z,3.23
2023-02-05T02:24:38.491Z,3.50
2023-02-05T02:27:41.093Z,3.33
2023-02-05T02:30:41.189Z,3.40
2023-02-05T02:33:21.139Z,3.20
2023-02-05T02:36:09.866Z,3.27
2023-02-05T02:39:21.891Z,2.90
2023-02-05T02:42:12.351Z,2.77
2023-02-05T02:44:57.315Z,3.17
2023-02-05T02:47:29.876Z,3.13
2023-02-05T02:50:09.534Z,3.30
2023-02-05T02:52:40.588Z,2.90
2023-02-05T02:55:11.406Z,3.07
2023-02-05T02:57:42.130Z,3.27
2023-02-05T03:00:30.299Z,3.20
2023-02-05T03:03:03.331Z,3.27
2023-02-05T03:05:30.911Z,3.07
2023-02-05T03:08:05.586Z,3.23
2023-02-05T03:10:47.770Z,3.37
2023-02-05T03:13:14.544Z,3.17
2023-02-05T03:15:43.975Z,3.23
2023-02-05T03:18:12.550Z,3.20
2023-02-05T03:20:57.115Z,2.97
2023-02-05T03:23:27.093Z,3.27
2023-02-05T03:25:54.235Z,3.60
2023-02-05T03:28:21.902Z,3.13
2023-02-05T03:31:11.013Z,3.40
2023-02-05T03:34:12.577Z,3.27
2023-02-05T03:37:03.396Z,3.63
2023-02-05T03:40:38.739Z,4.20
2023-02-05T03:43:30.335Z,3.13
2023-02-05T03:46:39.666Z,3.70
2023-02-05T03:49:21.256Z,3.73
2023-02-05T03:52:17.796Z,3.67
2023-02-05T03:55:15.986Z,4.13
2023-02-05T03:58:04.743Z,4.13
2023-02-05T04:00:32.413Z,3.57
2023-02-05T04:02:59.451Z,3.83
2023-02-05T04:05:26.311Z,3.73
2023-02-05T04:07:53.268Z,3.37
2023-02-05T04:10:20.256Z,3.77
2023-02-05T04:12:47.137Z,4.03
2023-02-05T04:15:14.171Z,3.53
2023-02-05T04:17:41.439Z,3.33
2023-02-05T04:20:09.307Z,3.63
2023-02-05T04:22:36.114Z,3.97
2023-02-05T04:25:02.937Z,3.90
2023-02-05T04:27:29.836Z,4.10
2023-02-05T04:29:56.702Z,3.70
2023-02-05T04:32:24.122Z,3.70
2023-02-05T04:34:51.400Z,3.77
2023-02-05T04:37:18.274Z,3.40
2023-02-05T04:39:45.062Z,4.00
2023-02-05T04:42:11.918Z,3.50
2023-02-05T04:44:38.754Z,3.40
2023-02-05T04:47:05.555Z,3.10
2023-02-05T04:49:33.569Z,3.10
2023-02-05T04:52:00.636Z,3.17
2023-02-05T04:54:28.517Z,3.03
2023-02-05T04:56:55.340Z,3.27
2023-02-05T04:59:22.421Z,2.43
2023-02-05T05:01:49.242Z,2.97
2023-02-05T05:04:16.057Z,2.87
2023-02-05T05:06:42.903Z,2.93
2023-02-05T05:09:09.836Z,3.30
2023-02-05T05:11:36.663Z,3.57
2023-02-05T05:14:03.540Z,3.17
2023-02-05T05:16:30.333Z,3.63
2023-02-05T05:18:57.156Z,3.67
2023-02-05T05:21:24.144Z,3.83
2023-02-05T05:23:50.948Z,3.40
2023-02-05T05:26:17.808Z,2.70
2023-02-05T05:28:44.661Z,3.10
2023-02-05T05:31:19.578Z,3.73
2023-02-05T05:33:46.583Z,3.40
2023-02-05T05:36:14.026Z,3.30
2023-02-05T05:38:41.091Z,3.50
2023-02-05T05:41:26.891Z,3.27
2023-02-05T05:43:54.823Z,3.43
2023-02-05T05:46:26.607Z,3.97
2023-02-05T05:48:56.870Z,3.60
2023-02-05T05:51:25.959Z,3.40
2023-02-05T05:53:53.597Z,3.77
2023-02-05T05:56:20.887Z,3.50
2023-02-05T05:58:48.460Z,3.97
2023-02-05T06:01:19.068Z,3.50
2023-02-05T06:03:45.867Z,3.53
2023-02-05T06:06:13.352Z,3.60
2023-02-05T06:08:40.255Z,3.90
2023-02-05T06:11:07.080Z,3.57
2023-02-05T06:13:34.881Z,3.93
2023-02-05T06:16:01.984Z,4.03
2023-02-05T06:18:28.913Z,3.90
2023-02-05T06:20:55.763Z,3.33
2023-02-05T06:23:22.617Z,3.63
2023-02-05T06:25:49.573Z,3.77
2023-02-05T06:28:16.458Z,3.70
2023-02-05T06:30:43.353Z,3.83
2023-02-05T06:33:12.685Z,3.70
2023-02-05T06:35:40.860Z,4.83
2023-02-05T06:38:08.342Z,4.80
2023-02-05T06:40:36.360Z,3.90
2023-02-05T06:43:03.643Z,3.53
2023-02-05T06:45:30.741Z,3.47
2023-02-05T06:47:58.239Z,4.17
2023-02-05T06:50:25.653Z,3.97
2023-02-05T06:52:52.643Z,4.33
2023-02-05T06:55:19.644Z,4.37
2023-02-05T06:57:46.521Z,4.73
2023-02-05T07:00:15.017Z,4.60
2023-02-05T07:02:41.894Z,4.07
2023-02-05T07:05:08.987Z,4.50
2023-02-05T07:07:35.905Z,4.90
2023-02-05T07:10:04.234Z,4.00
2023-02-05T07:12:31.157Z,4.43
2023-02-05T07:14:57.982Z,5.00
2023-02-05T07:17:25.072Z,4.63
2023-02-05T07:19:51.992Z,4.50
2023-02-05T07:22:18.926Z,4.30
2023-02-05T07:24:45.730Z,4.63
2023-02-05T07:27:12.592Z,5.10
2023-02-05T07:29:39.423Z,5.83
2023-02-05T07:32:06.342Z,5.40
2023-02-05T07:34:33.210Z,5.57
2023-02-05T07:36:59.998Z,6.03
2023-02-05T07:39:28.145Z,5.40
2023-02-05T07:41:55.060Z,5.40
2023-02-05T07:44:22.258Z,4.47
2023-02-05T07:46:49.243Z,4.70
2023-02-05T07:49:16.082Z,4.23
2023-02-05T07:51:42.992Z,3.60
2023-02-05T07:54:11.117Z,3.33
2023-02-05T07:56:38.004Z,3.57
2023-02-05T07:59:04.993Z,3.20
2023-02-05T08:01:32.255Z,3.70
2023-02-05T08:03:59.124Z,3.53
2023-02-05T08:06:25.974Z,3.47
2023-02-05T08:08:53.038Z,3.67
2023-02-05T08:11:20.841Z,3.23
2023-02-05T08:13:48.025Z,3.70
2023-02-05T08:16:15.921Z,3.80
2023-02-05T08:18:43.624Z,3.57
2023-02-05T08:21:10.503Z,4.17
2023-02-05T08:23:37.296Z,4.20
2023-02-05T08:26:04.357Z,4.23
2023-02-05T08:28:31.206Z,4.17
2023-02-05T08:30:58.660Z,3.97
2023-02-05T08:33:25.787Z,4.07
2023-02-05T08:35:52.734Z,4.23
2023-02-05T08:38:19.545Z,3.87
2023-02-05T08:40:46.368Z,4.50
2023-02-05T08:43:13.327Z,5.10
2023-02-05T08:45:40.341Z,5.13
2023-02-05T08:48:07.303Z,5.30
2023-02-05T08:50:34.182Z,5.00
2023-02-05T08:53:01.297Z,5.27
2023-02-05T08:55:28.221Z,5.38
2023-02-05T08:57:55.457Z,5.47
2023-02-05T09:00:22.646Z,5.00
2023-02-05T09:02:49.690Z,5.47
2023-02-05T09:05:16.654Z,5.27
2023-02-05T09:07:43.562Z,4.77
2023-02-05T09:10:13.364Z,3.80
2023-02-05T09:12:40.646Z,4.00
2023-02-05T09:15:08.921Z,3.53
2023-02-05T09:17:35.764Z,4.13
2023-02-05T09:20:03.599Z,4.30
2023-02-05T09:22:30.561Z,4.30
2023-02-05T09:24:58.499Z,3.80
2023-02-05T09:27:25.368Z,3.13
2023-02-05T09:29:52.259Z,3.17
2023-02-05T09:32:19.172Z,3.43
2023-02-05T09:34:46.020Z,3.77
2023-02-05T09:37:12.980Z,3.60
2023-02-05T09:42:43.098Z,4.00
2023-02-05T09:45:59.029Z,2.97
2023-02-05T09:48:52.798Z,3.40
2023-02-05T09:51:34.494Z,2.97
2023-02-05T09:54:28.685Z,2.70
2023-02-05T09:57:05.629Z,3.43
2023-02-05T09:59:34.140Z,3.43
2023-02-05T10:02:21.017Z,4.20
2023-02-05T10:04:47.988Z,3.47
2023-02-05T10:07:37.550Z,3.20
2023-02-05T10:10:42.256Z,2.83
2023-02-05T10:13:36.780Z,3.00
2023-02-05T10:16:47.682Z,2.40
2023-02-05T10:19:49.151Z,2.67
2023-02-05T10:22:33.053Z,3.03
2023-02-05T10:25:36.936Z,3.50
2023-02-05T10:28:15.715Z,3.17
2023-02-05T10:30:58.579Z,3.23
2023-02-05T10:33:56.085Z,3.40
2023-02-05T10:36:26.817Z,3.03
2023-02-05T10:38:57.266Z,3.30
2023-02-05T10:41:32.101Z,3.20
2023-02-05T10:44:28.054Z,2.70
2023-02-05T10:47:40.584Z,2.93
2023-02-05T10:50:14.573Z,2.70
2023-02-05T10:52:41.789Z,2.90
2023-02-05T10:55:13.591Z,2.67
2023-02-05T10:57:40.669Z,2.60
2023-02-05T11:00:21.336Z,2.40
2023-02-05T11:02:52.280Z,2.33
2023-02-05T11:05:38.276Z,2.20
2023-02-05T11:08:05.478Z,2.40
2023-02-05T11:10:35.887Z,2.27
2023-02-05T11:13:19.651Z,2.40
2023-02-05T11:16:05.802Z,2.10
2023-02-05T11:18:39.760Z,2.83
2023-02-05T11:21:09.693Z,2.40
2023-02-05T11:23:41.294Z,2.90
2023-02-05T11:26:17.759Z,2.80
2023-02-05T11:28:45.131Z,2.50
2023-02-05T11:31:28.893Z,2.47
2023-02-05T11:34:07.988Z,2.60
2023-02-05T11:36:40.462Z,3.10
2023-02-05T11:39:08.064Z,2.87
2023-02-05T11:41:51.861Z,3.30
2023-02-05T11:44:28.000Z,3.30
2023-02-05T11:47:00.211Z,3.37
2023-02-05T11:49:41.059Z,3.10
2023-02-05T11:52:16.807Z,2.73
2023-02-05T11:54:49.030Z,3.00
2023-02-05T11:57:19.706Z,3.20
2023-02-05T12:00:07.386Z,3.13
2023-02-05T12:02:37.459Z,3.53
2023-02-05T12:05:19.333Z,3.47
2023-02-05T12:08:16.995Z,3.30
2023-02-05T12:11:01.585Z,2.90
2023-02-05T12:13:59.420Z,3.27
2023-02-05T12:16:41.661Z,3.30
2023-02-05T12:19:20.374Z,3.20
2023-02-05T12:22:12.395Z,3.13
2023-02-05T12:24:55.021Z,3.10
2023-02-05T12:27:33.759Z,2.97
2023-02-05T12:30:19.031Z,2.90
2023-02-05T12:33:16.696Z,3.10
2023-02-05T12:36:18.286Z,3.17
2023-02-05T12:39:33.341Z,3.40
2023-02-05T12:42:40.588Z,3.33
2023-02-05T12:45:34.894Z,3.40
2023-02-05T12:48:49.221Z,3.20
2023-02-05T12:51:50.716Z,3.60
2023-02-05T12:54:50.866Z,3.07
2023-02-05T12:57:37.625Z,3.40
2023-02-05T13:00:13.759Z,3.73
2023-02-05T13:03:02.728Z,3.33
2023-02-05T13:05:53.930Z,3.70
2023-02-05T13:08:49.476Z,3.50
2023-02-05T13:11:42.133Z,3.80
2023-02-05T13:14:12.030Z,3.20
2023-02-05T13:16:48.828Z,3.50
2023-02-05T13:19:39.294Z,3.53
2023-02-05T13:22:37.027Z,3.00
2023-02-05T13:25:38.027Z,3.40
2023-02-05T13:28:42.714Z,3.63
2023-02-05T13:31:28.686Z,3.33
2023-02-05T13:34:02.468Z,4.37
2023-02-05T13:37:25.203Z,7.10
2023-02-05T13:40:11.030Z,4.17
2023-02-05T13:43:07.461Z,4.23
2023-02-05T13:45:51.378Z,7.97
2023-02-05T13:48:54.633Z,7.07
2023-02-05T13:51:45.881Z,4.20
2023-02-05T13:54:46.694Z,4.70
2023-02-05T13:57:40.769Z,4.00
2023-02-05T14:00:12.586Z,4.57
2023-02-05T14:02:49.442Z,4.90
2023-02-05T14:05:27.966Z,5.00
2023-02-05T14:07:57.781Z,4.67
2023-02-05T14:10:28.530Z,4.60
2023-02-05T14:13:19.330Z,4.70
2023-02-05T14:15:46.570Z,5.03
2023-02-05T14:18:45.165Z,5.00
2023-02-05T14:22:11.310Z,4.87
2023-02-05T14:24:41.042Z,4.57
2023-02-05T14:27:26.277Z,4.50
2023-02-05T14:29:53.577Z,5.23
2023-02-05T14:32:26.148Z,4.87
2023-02-05T14:35:10.656Z,4.93
2023-02-05T14:37:42.599Z,4.70
2023-02-05T14:40:35.900Z,5.47
2023-02-05T14:43:43.944Z,4.73
2023-02-05T14:46:40.226Z,5.00
2023-02-05T14:49:22.250Z,5.03
2023-02-05T14:52:02.907Z,5.30
2023-02-05T14:54:44.232Z,5.30
2023-02-05T14:57:51.125Z,5.77
2023-02-05T15:00:26.068Z,5.90
2023-02-05T15:03:05.709Z,5.73
2023-02-05T15:05:43.199Z,5.87
2023-02-05T15:08:26.825Z,6.30
2023-02-05T15:11:09.016Z,5.70
2023-02-05T15:13:36.014Z,6.37
2023-02-05T15:16:11.663Z,5.73
2023-02-05T15:18:53.842Z,5.50
2023-02-05T15:21:37.369Z,6.27
2023-02-05T15:24:17.358Z,5.97
2023-02-05T15:27:07.289Z,6.47
2023-02-05T15:29:57.160Z,6.03
2023-02-05T15:32:48.607Z,6.43
2023-02-05T15:35:20.179Z,6.00
2023-02-05T15:37:56.551Z,6.43
2023-02-05T15:40:31.381Z,7.07
2023-02-05T15:43:11.939Z,6.67
2023-02-05T15:45:44.756Z,7.10
2023-02-05T15:48:12.796Z,6.50
2023-02-05T15:50:59.079Z,6.70
2023-02-05T15:53:43.899Z,6.27
2023-02-05T15:56:25.188Z,6.97
2023-02-05T15:59:05.250Z,7.10
2023-02-05T16:01:46.582Z,6.97
2023-02-05T16:04:22.469Z,6.50
2023-02-05T16:06:49.871Z,7.20
2023-02-05T16:09:24.232Z,6.70
2023-02-05T16:11:51.490Z,6.60
2023-02-05T16:14:22.495Z,7.37
2023-02-05T16:17:18.667Z,6.70
2023-02-05T16:20:09.748Z,6.90
2023-02-05T16:22:42.290Z,6.80
2023-02-05T16:25:29.347Z,7.40
2023-02-05T16:27:58.541Z,8.03
2023-02-05T16:30:40.863Z,7.47
2023-02-05T16:33:21.033Z,7.40
2023-02-05T16:35:48.876Z,6.97
2023-02-05T16:38:18.967Z,6.90
2023-02-05T16:40:58.102Z,7.00
2023-02-05T16:43:37.723Z,6.43
2023-02-05T16:46:07.428Z,6.00
2023-02-05T16:48:46.720Z,6.17
2023-02-05T16:51:41.099Z,6.20
2023-02-05T16:54:10.926Z,6.20
2023-02-05T16:56:47.247Z,7.37
2023-02-05T16:59:23.090Z,6.80
2023-02-05T17:01:52.328Z,6.70
2023-02-05T17:04:36.990Z,7.03
2023-02-05T17:07:16.116Z,6.70
2023-02-05T17:09:43.067Z,7.03
2023-02-05T17:12:21.986Z,7.13
2023-02-05T17:14:57.585Z,7.43
2023-02-05T17:17:26.806Z,7.00
2023-02-05T17:20:28.108Z,7.27
2023-02-05T17:23:00.656Z,7.97
2023-02-05T17:25:39.812Z,7.73
2023-02-05T17:28:13.229Z,8.47
2023-02-05T17:30:43.342Z,8.00
2023-02-05T17:33:23.562Z,8.43
2023-02-05T17:35:50.917Z,7.87
2023-02-05T17:38:20.468Z,8.37
2023-02-05T17:40:47.544Z,8.50
2023-02-05T17:43:14.463Z,10.53
2023-02-05T17:45:42.961Z,11.00
2023-02-05T17:48:11.575Z,9.97
2023-02-05T17:50:38.992Z,9.50
2023-02-05T17:53:06.045Z,10.70
2023-02-05T17:55:33.234Z,12.80
2023-02-05T17:58:00.275Z,11.37
2023-02-05T18:00:28.821Z,10.17
2023-02-05T18:02:55.662Z,11.33
2023-02-05T18:05:23.306Z,11.43
2023-02-05T18:07:56.827Z,11.87
2023-02-05T18:10:32.033Z,10.73
2023-02-05T18:12:59.382Z,11.17
2023-02-05T18:15:27.641Z,11.70
2023-02-05T18:17:54.559Z,11.00
2023-02-05T18:20:21.683Z,11.03
2023-02-05T18:22:49.208Z,11.43
2023-02-05T18:25:16.249Z,11.13
2023-02-05T18:27:43.159Z,10.77
2023-02-05T18:30:11.229Z,10.77
2023-02-05T18:32:38.318Z,10.93
2023-02-05T18:35:05.595Z,10.73
2023-02-05T18:37:32.464Z,10.33
2023-02-05T18:39:59.403Z,10.50
2023-02-05T18:42:27.069Z,10.57
2023-02-05T18:44:53.959Z,9.57
2023-02-05T18:47:20.931Z,10.03
2023-02-05T18:49:47.780Z,10.23
2023-02-05T18:52:14.623Z,10.60
2023-02-05T18:54:41.453Z,10.50
2023-02-05T18:57:08.330Z,10.90
2023-02-05T18:59:36.768Z,10.70
2023-02-05T19:02:03.707Z,9.23
2023-02-05T19:04:33.022Z,9.73
2023-02-05T19:07:00.083Z,10.50
2023-02-05T19:09:27.584Z,9.73
2023-02-05T19:11:55.540Z,10.27
2023-02-05T19:14:25.321Z,9.00
2023-02-05T19:16:52.758Z,9.10
2023-02-05T19:19:25.141Z,8.83
2023-02-05T19:21:55.235Z,9.37
2023-02-05T19:24:22.541Z,9.53
2023-02-05T19:26:50.798Z,10.80
2023-02-05T19:29:20.552Z,11.47
2023-02-05T19:31:47.768Z,11.60
2023-02-05T19:34:15.637Z,12.53
2023-02-05T19:36:43.331Z,11.83
2023-02-05T19:39:14.281Z,9.23
2023-02-05T19:41:44.094Z,10.03
2023-02-05T19:44:13.559Z,10.37
2023-02-05T19:46:44.236Z,9.20
2023-02-05T19:49:17.705Z,12.53
2023-02-05T19:51:51.059Z,11.73
2023-02-05T19:54:21.177Z,10.20
2023-02-05T19:56:48.941Z,10.37
2023-02-05T19:59:16.747Z,10.00
2023-02-05T20:01:46.055Z,10.43
2023-02-05T20:04:17.224Z,9.57
2023-02-05T20:06:46.470Z,10.07
2023-02-05T20:09:14.676Z,9.70
2023-02-05T20:11:45.869Z,9.67
2023-02-05T20:14:13.235Z,9.20
2023-02-05T20:16:40.577Z,9.70
2023-02-05T20:19:09.971Z,10.87
2023-02-05T20:21:37.148Z,10.60
2023-02-05T20:24:04.653Z,11.17
2023-02-05T20:26:31.642Z,10.17
2023-02-05T20:29:17.401Z,10.30
2023-02-05T20:31:49.482Z,10.53
2023-02-05T20:34:21.265Z,10.23
2023-02-05T20:37:02.097Z,9.17
2023-02-05T20:39:30.413Z,9.47
2023-02-05T20:41:59.452Z,9.37
2023-02-05T20:44:29.959Z,9.73
2023-02-05T20:46:57.037Z,9.27
2023-02-05T20:49:24.576Z,9.17
2023-02-05T20:51:52.969Z,8.97
2023-02-05T20:54:20.658Z,7.83
2023-02-05T20:56:51.223Z,8.67
2023-02-05T20:59:18.090Z,8.20
2023-02-05T21:01:44.990Z,7.63
2023-02-05T21:04:12.684Z,7.50
2023-02-05T21:06:41.067Z,8.03
2023-02-05T21:09:09.786Z,6.97
2023-02-05T21:11:38.134Z,7.20
2023-02-05T21:14:06.011Z,7.53
2023-02-05T21:16:35.906Z,7.00
2023-02-05T21:19:05.803Z,7.20
2023-02-05T21:21:36.173Z,7.07
2023-02-05T21:24:07.928Z,7.60
2023-02-05T21:26:37.543Z,7.60
2023-02-05T21:29:10.007Z,7.53
2023-02-05T21:31:40.648Z,7.30
2023-02-05T21:34:11.465Z,6.90
2023-02-05T21:36:38.487Z,7.43
2023-02-05T21:39:05.538Z,7.47
2023-02-05T21:41:32.905Z,7.93
2023-02-05T21:44:00.944Z,7.53
2023-02-05T21:46:29.894Z,7.90
2023-02-05T21:48:59.346Z,8.30
2023-02-05T21:51:29.789Z,7.97
2023-02-05T21:53:59.545Z,7.67
2023-02-05T21:56:30.856Z,8.20
2023-02-05T21:58:57.814Z,8.07
2023-02-05T22:01:28.718Z,8.50
2023-02-05T22:04:16.833Z,7.67
2023-02-05T22:06:44.265Z,8.87
2023-02-05T22:09:15.125Z,8.50
2023-02-05T22:11:43.460Z,8.43
2023-02-05T22:14:11.044Z,8.27
2023-02-05T22:16:38.589Z,9.30
2023-02-05T22:19:06.171Z,8.07
2023-02-05T22:21:43.066Z,8.57
2023-02-05T22:24:15.592Z,9.13
2023-02-05T22:26:43.243Z,8.70
2023-02-05T22:29:15.677Z,9.23
2023-02-05T22:31:44.419Z,8.33
2023-02-05T22:34:12.069Z,8.70
2023-02-05T22:36:38.914Z,7.93
2023-02-05T22:39:07.266Z,7.33
2023-02-05T22:41:38.104Z,8.17
2023-02-05T22:44:06.919Z,7.60
2023-02-05T22:46:39.256Z,7.73
2023-02-05T22:49:06.325Z,7.63
2023-02-05T22:51:38.074Z,7.63
2023-02-05T22:54:06.476Z,7.63
2023-02-05T22:56:34.021Z,7.57
2023-02-05T22:59:03.226Z,7.17
2023-02-05T23:01:35.730Z,7.97
2023-02-05T23:04:05.579Z,7.90
2023-02-05T23:06:36.263Z,7.87
2023-02-05T23:09:17.575Z,8.03
2023-02-05T23:11:45.461Z,7.87
2023-02-05T23:14:15.836Z,7.33
2023-02-05T23:16:45.150Z,7.40
2023-02-05T23:19:19.709Z,7.40
2023-02-05T23:21:47.255Z,7.30
2023-02-05T23:24:15.271Z,8.20
2023-02-05T23:26:45.195Z,7.93
2023-02-05T23:29:15.248Z,8.17
2023-02-05T23:31:42.480Z,7.67
2023-02-05T23:34:09.889Z,7.80
2023-02-05T23:36:36.975Z,7.83
2023-02-05T23:39:04.602Z,8.30
2023-02-05T23:41:37.293Z,7.77
2023-02-05T23:44:11.462Z,7.63
2023-02-05T23:46:40.162Z,8.33
2023-02-05T23:49:07.374Z,8.27
2023-02-05T23:51:34.557Z,7.80
2023-02-05T23:54:01.800Z,7.97
2023-02-05T23:56:29.548Z,7.90
2023-02-05T23:58:56.705Z,8.33
